Time;durP1;ratioP1;P1;durP2;ratioP2;P2;SDS_P1;SDS_P2;PMS_P1;PMS_P2;Temp;Humidity;BMP_temperature;BMP_pressure;BME280_temperature;BME280_humidity;BME280_pressure;Samples;Min_cycle;Max_cycle;Signal;HPM_P1;HPM_P2
2021/12/16 00:03:40;;;;;;;17.02;13.27;;;5.40;99.90;;;;;;6136076;23;20217;-86
2021/12/16 00:06:45;;;;;;;13.70;12.15;;;5.40;99.90;;;;;;6136165;23;20175;-86
2021/12/16 00:09:09;;;;;;;18.33;14.50;;;5.30;99.90;;;;;;6134365;23;20207;-86
2021/12/16 00:31:17;;;;;;;20.08;15.65;;;5.10;99.90;;;;;;6137020;23;20198;-84
2021/12/16 00:33:46;;;;;;;20.77;13.85;;;5.10;99.90;;;;;;6137353;23;20172;-83
2021/12/16 00:36:14;;;;;;;17.38;15.23;;;5.00;99.90;;;;;;6136293;23;20236;-85
2021/12/16 00:38:43;;;;;;;22.02;14.57;;;5.00;99.90;;;;;;6137442;23;20516;-84
2021/12/16 00:41:10;;;;;;;21.48;16.02;;;5.10;99.90;;;;;;6137043;23;20199;-84
2021/12/16 00:43:43;;;;;;;21.02;16.42;;;5.10;99.90;;;;;;6137639;23;20184;-84
2021/12/16 00:46:27;;;;;;;20.08;15.27;;;5.10;99.90;;;;;;6138579;23;20196;-84
2021/12/16 00:49:17;;;;;;;19.85;15.13;;;5.10;99.90;;;;;;6137236;23;20226;-83
2021/12/16 00:54:28;;;;;;;17.42;14.27;;;5.10;99.90;;;;;;6136353;23;20215;-84
2021/12/16 00:57:00;;;;;;;21.95;16.40;;;5.10;99.90;;;;;;6136310;23;20188;-84
2021/12/16 00:59:32;;;;;;;18.95;16.10;;;5.10;99.90;;;;;;6135996;23;20160;-84
2021/12/16 01:02:12;;;;;;;21.35;15.25;;;5.20;99.90;;;;;;6135951;23;20210;-83
2021/12/16 01:05:11;;;;;;;23.65;14.70;;;5.20;99.90;;;;;;6136248;23;20207;-84
2021/12/16 01:07:56;;;;;;;22.23;16.27;;;5.20;99.90;;;;;;6136215;23;20203;-84
2021/12/16 01:35:33;;;;;;;22.17;16.63;;;5.50;99.90;;;;;;6135140;23;20248;-84
2021/12/16 01:52:01;;;;;;;21.10;14.50;;;5.30;99.90;;;;;;6135060;23;20238;-84
2021/12/16 01:57:20;;;;;;;19.23;13.57;;;5.20;99.90;;;;;;6130318;23;20184;-84
2021/12/16 01:59:57;;;;;;;19.20;13.55;;;5.10;99.90;;;;;;6135141;23;20163;-84
2021/12/16 02:02:35;;;;;;;20.80;14.93;;;5.00;99.90;;;;;;6135047;23;20294;-84
2021/12/16 02:05:22;;;;;;;18.55;12.68;;;4.90;99.90;;;;;;6135278;23;20170;-84
2021/12/16 02:08:14;;;;;;;24.50;15.63;;;4.90;99.90;;;;;;6135570;23;20210;-84
2021/12/16 02:10:46;;;;;;;20.83;13.45;;;4.90;99.90;;;;;;6135075;23;20719;-83
2021/12/16 02:13:36;;;;;;;20.98;15.07;;;4.80;99.90;;;;;;6136211;23;20167;-83
2021/12/16 02:27:31;;;;;;;23.23;17.10;;;4.80;99.90;;;;;;6129325;23;20251;-83
2021/12/16 02:33:11;;;;;;;23.80;17.42;;;4.90;99.90;;;;;;6068719;23;20184;-82
2021/12/16 02:35:44;;;;;;;24.17;17.55;;;4.90;99.90;;;;;;6120996;23;20198;-83
2021/12/16 02:41:10;;;;;;;22.15;15.70;;;4.80;99.90;;;;;;6004081;24;20186;-81
2021/12/16 02:44:26;;;;;;;22.83;16.90;;;4.80;99.90;;;;;;6003060;24;20189;-81
2021/12/16 02:49:54;;;;;;;22.73;15.93;;;4.90;99.90;;;;;;6006020;23;20204;-82
2021/12/16 02:52:32;;;;;;;32.53;18.92;;;4.90;99.90;;;;;;6016830;23;20655;-82
2021/12/16 02:55:02;;;;;;;25.67;17.08;;;4.90;99.90;;;;;;6016682;23;20552;-81
2021/12/16 02:57:38;;;;;;;31.48;18.00;;;4.90;99.90;;;;;;6016026;23;20302;-82
2021/12/16 03:00:18;;;;;;;25.95;18.80;;;5.00;99.90;;;;;;6015357;23;20542;-82
2021/12/16 03:03:06;;;;;;;26.45;18.35;;;5.00;99.90;;;;;;6015953;23;20226;-82
2021/12/16 03:05:35;;;;;;;26.08;19.02;;;5.00;99.90;;;;;;6016588;23;20173;-82
2021/12/16 03:08:02;;;;;;;27.83;18.30;;;5.00;99.90;;;;;;6015220;23;20187;-82
2021/12/16 03:13:33;;;;;;;25.85;17.48;;;5.10;99.90;;;;;;5972132;23;20239;-82
2021/12/16 03:16:24;;;;;;;28.48;18.92;;;5.20;99.90;;;;;;6016130;23;20189;-82
2021/12/16 03:19:10;;;;;;;25.60;17.13;;;5.20;99.90;;;;;;6015920;23;20206;-82
2021/12/16 03:21:49;;;;;;;23.38;16.52;;;5.10;99.90;;;;;;6015415;23;20245;-82
2021/12/16 03:24:42;;;;;;;24.73;17.95;;;5.10;99.90;;;;;;6016288;23;20174;-82
2021/12/16 03:27:59;;;;;;;25.73;19.38;;;5.20;99.90;;;;;;6016113;23;20185;-82
2021/12/16 03:36:49;;;;;;;25.90;16.95;;;5.30;99.90;;;;;;6016777;23;20191;-82
2021/12/16 03:39:41;;;;;;;22.67;15.55;;;5.40;99.90;;;;;;6016089;23;20570;-82
2021/12/16 03:42:35;;;;;;;27.00;18.67;;;5.30;99.90;;;;;;6016349;23;20198;-82
2021/12/16 03:48:46;;;;;;;26.02;16.63;;;5.30;99.90;;;;;;6016610;23;20165;-82
2021/12/16 03:51:36;;;;;;;27.75;18.60;;;5.40;99.90;;;;;;6001901;23;20217;-81
2021/12/16 03:54:45;;;;;;;25.33;16.98;;;5.20;99.90;;;;;;6016767;23;20245;-82
2021/12/16 03:57:15;;;;;;;26.42;16.42;;;5.20;99.90;;;;;;6016213;23;20262;-81
2021/12/16 04:00:12;;;;;;;31.60;18.60;;;5.30;99.90;;;;;;6017403;23;20262;-82
2021/12/16 04:03:14;;;;;;;25.60;15.93;;;5.30;99.90;;;;;;6000700;23;20186;-82
2021/12/16 04:06:06;;;;;;;29.05;17.98;;;5.40;99.90;;;;;;6016961;23;20178;-82
2021/12/16 04:15:08;;;;;;;29.10;16.67;;;5.20;99.90;;;;;;6017248;23;20174;-81
2021/12/16 04:17:43;;;;;;;31.30;18.27;;;5.10;99.90;;;;;;6017237;23;20205;-82
2021/12/16 04:20:21;;;;;;;27.08;16.45;;;5.10;99.90;;;;;;6017419;23;20212;-82
2021/12/16 04:22:55;;;;;;;25.83;16.20;;;5.00;99.90;;;;;;6017297;23;20241;-81
2021/12/16 04:25:30;;;;;;;26.23;18.77;;;5.00;99.90;;;;;;6017521;23;20278;-81
2021/12/16 04:31:08;;;;;;;30.17;18.30;;;4.80;99.90;;;;;;5985546;23;20973;-82
2021/12/16 04:37:06;;;;;;;34.03;20.10;;;5.00;99.90;;;;;;5986188;23;20199;-82
2021/12/16 04:39:51;;;;;;;35.38;21.00;;;5.00;99.90;;;;;;5986572;23;20727;-82
2021/12/16 04:42:32;;;;;;;33.30;19.27;;;5.00;99.90;;;;;;6017532;23;20173;-82
2021/12/16 04:45:25;;;;;;;37.83;21.38;;;5.00;99.90;;;;;;6017214;23;20190;-81
2021/12/16 04:47:59;;;;;;;36.42;18.75;;;5.00;99.90;;;;;;6017385;23;20173;-82
2021/12/16 04:50:36;;;;;;;34.20;19.17;;;5.00;99.90;;;;;;6017072;23;20270;-82
2021/12/16 04:53:16;;;;;;;30.10;18.42;;;5.00;99.90;;;;;;6016838;23;20246;-81
2021/12/16 04:55:50;;;;;;;29.42;17.75;;;5.00;99.90;;;;;;6016844;23;20166;-82
2021/12/16 04:58:25;;;;;;;29.77;18.10;;;5.00;99.90;;;;;;6016555;23;20678;-82
2021/12/16 05:00:56;;;;;;;32.30;19.60;;;4.90;99.90;;;;;;6016359;23;20189;-82
2021/12/16 05:03:29;;;;;;;32.50;21.48;;;4.80;99.90;;;;;;6016560;23;20189;-81
2021/12/16 05:05:59;;;;;;;33.25;18.23;;;4.80;99.90;;;;;;6021062;23;20171;-80
2021/12/16 05:08:40;;;;;;;34.10;18.45;;;4.80;99.90;;;;;;6025103;23;20281;-81
2021/12/16 05:11:14;;;;;;;35.03;18.42;;;4.80;99.90;;;;;;6031066;23;20201;-81
2021/12/16 05:13:58;;;;;;;29.80;17.33;;;4.80;99.90;;;;;;6024070;23;20171;-81
2021/12/16 05:16:26;;;;;;;29.23;16.80;;;4.80;99.90;;;;;;6017740;23;20175;-82
2021/12/16 05:19:12;;;;;;;32.83;19.40;;;4.80;99.90;;;;;;6017257;23;20198;-82
2021/12/16 05:21:55;;;;;;;25.10;15.40;;;4.90;99.90;;;;;;6017797;23;20166;-81
2021/12/16 05:24:28;;;;;;;25.70;17.75;;;4.90;99.90;;;;;;6016964;23;20190;-81
2021/12/16 05:26:58;;;;;;;30.75;19.38;;;4.80;99.90;;;;;;6015109;23;20186;-81
2021/12/16 05:29:34;;;;;;;29.58;17.92;;;4.90;99.90;;;;;;6017034;23;20253;-81
2021/12/16 05:32:03;;;;;;;33.17;17.45;;;4.90;99.90;;;;;;6022289;23;20169;-81
2021/12/16 05:34:39;;;;;;;26.30;16.92;;;5.00;99.90;;;;;;6033367;23;20178;-81
2021/12/16 05:37:09;;;;;;;25.15;15.45;;;5.10;99.90;;;;;;6031777;23;20482;-82
2021/12/16 05:39:37;;;;;;;30.42;17.52;;;5.00;99.90;;;;;;6019435;23;20214;-82
2021/12/16 05:42:12;;;;;;;20.67;15.70;;;5.10;99.90;;;;;;6019423;23;20205;-82
2021/12/16 05:44:51;;;;;;;24.35;17.20;;;5.00;99.90;;;;;;6029857;23;20165;-81
2021/12/16 05:47:27;;;;;;;26.55;16.42;;;4.90;99.90;;;;;;6034852;23;20161;-81
2021/12/16 05:50:36;;;;;;;27.50;15.60;;;5.00;99.90;;;;;;6023693;23;20370;-82
2021/12/16 05:53:11;;;;;;;27.90;15.73;;;5.00;99.90;;;;;;6017945;23;20171;-82
2021/12/16 05:55:38;;;;;;;27.17;17.10;;;4.90;99.90;;;;;;6024641;23;20173;-81
2021/12/16 05:58:18;;;;;;;21.17;13.70;;;4.70;99.90;;;;;;6033272;23;20194;-81
2021/12/16 06:00:55;;;;;;;32.28;17.13;;;4.80;99.90;;;;;;6028100;23;20186;-82
2021/12/16 06:03:24;;;;;;;24.95;16.25;;;4.80;99.90;;;;;;6016685;23;20178;-82
2021/12/16 06:06:05;;;;;;;30.80;18.75;;;4.70;99.90;;;;;;6017204;23;20190;-82
2021/12/16 06:38:32;;;;;;;23.17;14.80;;;4.70;99.90;;;;;;5822004;24;20333;-82
2021/12/16 06:41:11;;;;;;;27.85;17.33;;;4.80;99.90;;;;;;5870052;24;20185;-81
2021/12/16 06:44:07;;;;;;;27.38;17.13;;;4.90;99.90;;;;;;5970557;23;20186;-81
2021/12/16 06:47:04;;;;;;;25.85;16.55;;;4.90;99.90;;;;;;6018080;23;20574;-81
2021/12/16 06:50:27;;;;;;;22.88;15.18;;;4.80;99.90;;;;;;5996424;23;20237;-81
2021/12/16 06:53:03;;;;;;;26.27;15.73;;;5.10;99.90;;;;;;5929286;24;20188;-81
2021/12/16 06:55:42;;;;;;;26.33;15.45;;;5.00;99.90;;;;;;5928630;24;20263;-81
2021/12/16 06:58:34;;;;;;;25.13;15.48;;;5.10;99.90;;;;;;6014935;23;20173;-81
2021/12/16 07:01:32;;;;;;;31.55;18.35;;;5.20;99.90;;;;;;6015037;23;20170;-82
2021/12/16 07:04:18;;;;;;;30.42;18.77;;;5.10;99.90;;;;;;6015821;23;20599;-82
2021/12/16 07:06:53;;;;;;;32.33;16.60;;;5.00;99.90;;;;;;6015483;23;20517;-81
2021/12/16 07:09:37;;;;;;;34.00;17.13;;;5.10;99.90;;;;;;6015094;23;20206;-81
2021/12/16 07:12:17;;;;;;;29.15;17.60;;;5.20;99.90;;;;;;6015181;23;20310;-81
2021/12/16 07:15:07;;;;;;;31.05;16.40;;;5.10;99.90;;;;;;6017418;23;20193;-81
2021/12/16 07:17:34;;;;;;;30.67;16.50;;;5.20;99.90;;;;;;6027669;23;20230;-81
2021/12/16 07:20:36;;;;;;;34.67;18.67;;;5.10;99.90;;;;;;6027168;23;20226;-81
2021/12/16 07:23:14;;;;;;;29.73;16.60;;;5.10;99.90;;;;;;6026471;23;20201;-81
2021/12/16 07:25:41;;;;;;;33.15;16.48;;;5.10;99.90;;;;;;6007502;23;20186;-81
2021/12/16 07:28:09;;;;;;;30.73;16.60;;;5.30;99.90;;;;;;6014887;23;20197;-81
2021/12/16 07:30:37;;;;;;;25.25;16.55;;;5.40;99.90;;;;;;6016898;23;20220;-81
2021/12/16 07:33:05;;;;;;;28.75;15.07;;;5.40;99.90;;;;;;6016939;23;20523;-81
2021/12/16 07:35:34;;;;;;;28.20;15.35;;;5.50;99.90;;;;;;6017166;23;20190;-81
2021/12/16 07:38:01;;;;;;;34.58;16.33;;;5.60;99.90;;;;;;6021700;23;20187;-80
2021/12/16 07:40:30;;;;;;;30.48;18.30;;;5.60;99.90;;;;;;6030685;23;20210;-80
2021/12/16 07:43:19;;;;;;;29.98;16.80;;;5.70;99.90;;;;;;6026935;23;20237;-81
2021/12/16 07:45:50;;;;;;;27.23;16.52;;;5.70;99.90;;;;;;6017114;23;20708;-81
2021/12/16 07:48:19;;;;;;;29.48;16.55;;;5.80;99.90;;;;;;6017011;23;20568;-81
2021/12/16 07:50:50;;;;;;;27.02;15.43;;;5.80;99.90;;;;;;6015740;23;20205;-81
2021/12/16 07:53:17;;;;;;;28.33;16.70;;;5.80;99.90;;;;;;6014683;23;20167;-81
2021/12/16 07:55:46;;;;;;;30.98;17.15;;;5.90;99.90;;;;;;6015045;23;20187;-81
2021/12/16 07:58:12;;;;;;;21.52;14.70;;;5.70;99.90;;;;;;6015268;23;20211;-81
2021/12/16 08:00:40;;;;;;;28.23;15.50;;;5.70;99.90;;;;;;6015268;23;20188;-81
2021/12/16 08:03:11;;;;;;;25.58;15.10;;;5.60;99.90;;;;;;6015923;23;20183;-81
2021/12/16 08:05:42;;;;;;;25.73;15.32;;;5.60;99.90;;;;;;6015041;23;20181;-79
2021/12/16 08:08:11;;;;;;;23.83;15.50;;;5.60;99.90;;;;;;6014321;23;20223;-79
2021/12/16 08:10:43;;;;;;;26.58;14.30;;;5.70;99.90;;;;;;6118384;23;20218;-79
2021/12/16 08:13:10;;;;;;;23.52;14.02;;;5.70;99.90;;;;;;6130055;23;20636;-82
2021/12/16 08:18:20;;;;;;;25.65;16.17;;;5.90;99.90;;;;;;6126756;23;20219;-81
2021/12/16 08:20:46;;;;;;;22.38;15.07;;;5.70;99.90;;;;;;6100105;23;20191;-81
2021/12/16 08:23:47;;;;;;;21.85;13.85;;;5.80;99.90;;;;;;6101082;23;20195;-82
2021/12/16 08:26:20;;;;;;;22.10;14.02;;;5.80;99.90;;;;;;6098733;23;20649;-84
2021/12/16 08:28:48;;;;;;;24.27;14.70;;;5.90;99.90;;;;;;6101510;23;20251;-81
2021/12/16 08:31:15;;;;;;;17.35;12.77;;;5.90;99.90;;;;;;6101462;23;20204;-82
2021/12/16 08:33:42;;;;;;;18.77;14.05;;;5.80;99.90;;;;;;6101937;23;20184;-82
2021/12/16 08:36:10;;;;;;;21.95;14.45;;;5.80;99.90;;;;;;6102153;23;20188;-82
2021/12/16 08:38:38;;;;;;;23.20;14.25;;;6.00;99.90;;;;;;6102017;23;20203;-82
2021/12/16 08:41:09;;;;;;;20.13;13.90;;;6.00;99.90;;;;;;6130856;23;20168;-81
2021/12/16 08:43:39;;;;;;;18.08;12.90;;;6.20;99.90;;;;;;6132431;23;20172;-82
2021/12/16 08:46:07;;;;;;;24.00;15.27;;;6.20;99.90;;;;;;6132598;23;20184;-82
2021/12/16 08:48:34;;;;;;;23.15;15.73;;;6.10;99.90;;;;;;6132414;23;20703;-81
2021/12/16 08:51:01;;;;;;;17.52;13.18;;;6.30;99.90;;;;;;6132745;23;20209;-82
2021/12/16 08:53:28;;;;;;;19.77;13.27;;;6.20;99.90;;;;;;6132511;23;20187;-81
2021/12/16 08:55:56;;;;;;;15.75;11.57;;;6.30;99.90;;;;;;6132359;23;20183;-81
2021/12/16 08:58:26;;;;;;;15.73;11.07;;;6.20;99.90;;;;;;6132468;23;20180;-82
2021/12/16 09:00:56;;;;;;;16.02;11.60;;;6.20;99.90;;;;;;6132655;23;20202;-82
2021/12/16 09:03:23;;;;;;;18.98;11.77;;;6.30;99.90;;;;;;6132623;23;20168;-82
2021/12/16 09:05:50;;;;;;;20.95;13.23;;;6.40;99.90;;;;;;6132307;23;20186;-82
2021/12/16 09:08:17;;;;;;;21.02;12.45;;;6.50;99.90;;;;;;6131927;23;20184;-81
2021/12/16 09:10:44;;;;;;;16.90;11.63;;;6.50;99.90;;;;;;6131881;23;20551;-82
2021/12/16 09:13:14;;;;;;;18.33;13.13;;;6.60;99.90;;;;;;6132427;23;20190;-82
2021/12/16 09:15:46;;;;;;;17.23;11.63;;;6.70;99.90;;;;;;6133876;23;20172;-81
2021/12/16 09:18:15;;;;;;;18.20;12.38;;;6.80;99.90;;;;;;6134318;23;20550;-81
2021/12/16 09:20:42;;;;;;;20.17;11.20;;;6.80;99.90;;;;;;6132770;23;20204;-82
2021/12/16 09:23:11;;;;;;;17.08;11.63;;;6.90;99.90;;;;;;6132623;23;20180;-81
2021/12/16 09:25:39;;;;;;;21.80;14.80;;;7.00;99.90;;;;;;6131900;23;20184;-81
2021/12/16 09:28:06;;;;;;;18.25;12.77;;;7.00;99.90;;;;;;6131902;23;20186;-81
2021/12/16 09:30:34;;;;;;;16.88;11.57;;;6.90;99.90;;;;;;6132146;23;20215;-81
2021/12/16 09:33:05;;;;;;;17.50;13.05;;;7.00;99.90;;;;;;6132378;23;20226;-81
2021/12/16 09:35:34;;;;;;;17.27;11.82;;;7.10;99.90;;;;;;6132280;23;20174;-82
2021/12/16 09:38:01;;;;;;;16.80;12.32;;;7.10;99.90;;;;;;6131710;23;20183;-81
2021/12/16 09:40:30;;;;;;;14.88;12.80;;;7.20;99.90;;;;;;6131436;23;20208;-81
2021/12/16 09:42:58;;;;;;;19.23;11.40;;;7.20;99.90;;;;;;6132693;23;20560;-81
2021/12/16 09:45:25;;;;;;;17.08;12.05;;;7.20;99.90;;;;;;6132121;23;20320;-81
2021/12/16 09:47:52;;;;;;;16.98;12.45;;;7.20;99.90;;;;;;6131996;23;20658;-81
2021/12/16 09:50:24;;;;;;;19.85;13.90;;;7.30;99.90;;;;;;6131727;23;20210;-82
2021/12/16 09:52:51;;;;;;;17.40;11.77;;;7.40;99.90;;;;;;6132168;23;20214;-82
2021/12/16 09:55:19;;;;;;;24.50;15.63;;;7.50;99.90;;;;;;6132091;23;20635;-81
2021/12/16 09:57:47;;;;;;;15.40;12.65;;;7.60;99.90;;;;;;6132335;23;20183;-82
2021/12/16 10:00:19;;;;;;;18.85;12.85;;;7.70;99.90;;;;;;6131144;23;20199;-81
2021/12/16 10:02:48;;;;;;;17.02;11.77;;;7.80;99.90;;;;;;6130256;23;20507;-81
2021/12/16 10:05:15;;;;;;;17.35;13.65;;;7.90;99.90;;;;;;6133034;23;20188;-82
2021/12/16 10:07:43;;;;;;;18.63;13.45;;;8.00;99.90;;;;;;6132593;23;20500;-81
2021/12/16 10:10:12;;;;;;;18.77;11.73;;;7.90;99.90;;;;;;6131375;23;20214;-81
2021/12/16 10:12:42;;;;;;;17.92;12.35;;;7.90;99.90;;;;;;6131899;23;20196;-81
2021/12/16 10:17:52;;;;;;;18.80;11.18;;;8.00;99.90;;;;;;6130772;23;20508;-82
2021/12/16 10:20:22;;;;;;;16.45;11.57;;;8.00;99.90;;;;;;6131171;23;20531;-81
2021/12/16 10:22:51;;;;;;;16.15;10.50;;;8.00;99.90;;;;;;6131925;23;20183;-82
2021/12/16 10:25:25;;;;;;;16.52;11.80;;;8.10;99.90;;;;;;6131959;23;20293;-82
2021/12/16 10:28:11;;;;;;;21.25;12.85;;;8.10;99.90;;;;;;6132698;23;20216;-82
2021/12/16 10:30:49;;;;;;;15.55;11.25;;;8.10;99.90;;;;;;6131272;23;20199;-81
2021/12/16 10:33:21;;;;;;;16.50;10.88;;;8.10;99.90;;;;;;6130908;23;20635;-81
2021/12/16 10:35:49;;;;;;;17.52;11.60;;;8.10;99.90;;;;;;6130586;23;20259;-82
2021/12/16 10:38:20;;;;;;;12.70;10.55;;;8.10;99.90;;;;;;6131574;23;20180;-81
2021/12/16 10:40:50;;;;;;;17.23;11.32;;;8.10;99.90;;;;;;6131303;23;20217;-81
2021/12/16 10:43:26;;;;;;;18.83;12.30;;;8.10;99.90;;;;;;6131256;23;20176;-81
2021/12/16 10:45:56;;;;;;;16.58;10.60;;;8.10;99.90;;;;;;6131776;23;20269;-82
2021/12/16 10:48:27;;;;;;;17.23;11.52;;;8.10;99.90;;;;;;6131539;23;20201;-82
2021/12/16 10:51:11;;;;;;;16.33;10.20;;;8.20;99.90;;;;;;6131875;23;20172;-82
2021/12/16 10:53:57;;;;;;;14.05;10.52;;;8.10;99.90;;;;;;6137391;23;20224;-81
2021/12/16 10:56:28;;;;;;;18.20;11.77;;;8.00;99.90;;;;;;6143182;23;20172;-81
2021/12/16 10:58:58;;;;;;;17.55;13.48;;;7.90;99.90;;;;;;6132859;23;20223;-82
2021/12/16 11:01:57;;;;;;;14.40;12.02;;;7.90;99.90;;;;;;6131655;23;20179;-82
2021/12/16 11:04:30;;;;;;;13.85;10.93;;;8.00;99.90;;;;;;6131357;23;20172;-82
2021/12/16 11:07:01;;;;;;;17.10;11.82;;;8.00;99.90;;;;;;6131877;23;20523;-82
2021/12/16 11:09:46;;;;;;;14.70;10.55;;;8.10;99.90;;;;;;6131703;23;20534;-82
2021/12/16 11:12:28;;;;;;;14.07;11.30;;;8.20;99.90;;;;;;6131159;23;20194;-82
2021/12/16 11:14:59;;;;;;;22.45;12.75;;;8.40;99.90;;;;;;6131989;23;20164;-82
2021/12/16 11:17:30;;;;;;;17.83;12.48;;;8.40;99.90;;;;;;6131144;23;20178;-82
2021/12/16 11:20:00;;;;;;;19.08;13.52;;;8.50;99.90;;;;;;6131947;23;20287;-82
2021/12/16 11:22:33;;;;;;;16.45;12.93;;;8.50;99.90;;;;;;6130911;23;20183;-82
2021/12/16 11:25:17;;;;;;;17.80;13.05;;;8.60;99.90;;;;;;6131622;23;20168;-81
2021/12/16 11:27:47;;;;;;;18.75;13.35;;;8.50;99.90;;;;;;6131763;23;20168;-81
2021/12/16 11:30:29;;;;;;;18.65;13.15;;;8.40;99.90;;;;;;6130712;23;20235;-81
2021/12/16 11:33:09;;;;;;;18.85;12.25;;;8.30;99.90;;;;;;6131499;23;20192;-81
2021/12/16 11:35:45;;;;;;;15.77;12.32;;;8.30;99.90;;;;;;6131517;23;20179;-81
2021/12/16 11:38:20;;;;;;;16.33;11.45;;;8.20;99.90;;;;;;6131928;23;20164;-81
2021/12/16 11:40:58;;;;;;;15.15;11.60;;;8.20;99.90;;;;;;6132611;23;20218;-81
2021/12/16 11:44:00;;;;;;;20.73;13.35;;;8.20;99.90;;;;;;6133181;23;20164;-82
2021/12/16 11:46:30;;;;;;;17.85;12.55;;;8.20;99.90;;;;;;6042079;23;20188;-82
2021/12/16 11:49:00;;;;;;;21.02;12.68;;;8.20;99.90;;;;;;6125523;23;20215;-81
2021/12/16 11:51:30;;;;;;;19.40;13.38;;;8.20;99.90;;;;;;6142329;23;20169;-81
2021/12/16 11:54:02;;;;;;;16.77;12.75;;;8.20;99.90;;;;;;6130917;23;20178;-82
2021/12/16 11:56:45;;;;;;;15.00;13.32;;;8.30;99.90;;;;;;6131284;23;20165;-82
2021/12/16 11:59:20;;;;;;;15.52;11.82;;;8.20;99.90;;;;;;6131467;23;20204;-82
2021/12/16 12:01:48;;;;;;;15.70;13.45;;;8.30;99.90;;;;;;6131223;23;20160;-82
2021/12/16 12:04:15;;;;;;;15.98;13.85;;;8.40;99.90;;;;;;6130771;23;20497;-82
2021/12/16 12:06:46;;;;;;;18.05;13.63;;;8.50;99.90;;;;;;6130654;23;20191;-82
2021/12/16 12:09:13;;;;;;;17.58;11.50;;;8.40;99.90;;;;;;6131700;23;20203;-82
2021/12/16 12:11:43;;;;;;;16.73;11.70;;;8.40;99.90;;;;;;6131517;23;20244;-82
2021/12/16 12:14:12;;;;;;;19.80;12.80;;;8.60;99.90;;;;;;6132080;23;20709;-82
2021/12/16 12:16:41;;;;;;;15.25;13.23;;;8.50;99.90;;;;;;6133773;23;20203;-82
2021/12/16 12:19:12;;;;;;;18.55;13.27;;;8.50;99.90;;;;;;6133478;23;20203;-82
2021/12/16 12:21:41;;;;;;;15.50;13.20;;;8.40;99.90;;;;;;6133410;23;20189;-82
2021/12/16 12:24:13;;;;;;;18.25;10.50;;;8.40;99.90;;;;;;6135240;23;20180;-82
2021/12/16 12:26:45;;;;;;;16.52;12.88;;;8.30;99.90;;;;;;6134843;23;20175;-82
2021/12/16 12:29:15;;;;;;;15.40;11.82;;;8.20;99.90;;;;;;6135109;23;20204;-82
2021/12/16 12:31:44;;;;;;;18.73;11.90;;;8.30;99.90;;;;;;6134172;23;20184;-81
2021/12/16 12:34:13;;;;;;;15.63;13.63;;;8.30;99.90;;;;;;6135331;23;20187;-82
2021/12/16 12:36:40;;;;;;;20.92;11.63;;;8.40;99.90;;;;;;6135023;23;20211;-82
2021/12/16 12:39:10;;;;;;;20.52;14.93;;;8.40;99.90;;;;;;6134748;23;20214;-82
2021/12/16 12:41:38;;;;;;;15.07;11.98;;;8.50;99.90;;;;;;6133657;23;20164;-82
2021/12/16 12:44:06;;;;;;;19.23;12.65;;;8.60;99.90;;;;;;6134207;23;20180;-82
2021/12/16 12:46:35;;;;;;;17.92;13.10;;;8.70;99.90;;;;;;6133681;23;20180;-82
2021/12/16 12:49:06;;;;;;;21.08;12.68;;;8.70;99.90;;;;;;6132845;23;20643;-82
2021/12/16 12:51:37;;;;;;;19.02;13.25;;;8.80;99.90;;;;;;6133694;23;20164;-82
2021/12/16 12:54:20;;;;;;;18.23;13.00;;;8.80;99.90;;;;;;6132267;23;20198;-82
2021/12/16 12:56:47;;;;;;;19.63;10.93;;;8.80;99.90;;;;;;6132994;23;20172;-82
2021/12/16 13:06:34;;;;;;;17.55;11.85;;;8.90;99.90;;;;;;6133123;23;20274;-87
2021/12/16 13:09:27;;;;;;;16.13;12.65;;;9.00;99.90;;;;;;6127453;23;20227;-83
2021/12/16 13:12:00;;;;;;;16.08;11.88;;;9.10;99.90;;;;;;6127911;23;20318;-86
2021/12/16 13:14:43;;;;;;;16.13;12.25;;;9.20;99.90;;;;;;6127038;23;20553;-85
2021/12/16 13:17:41;;;;;;;16.45;12.80;;;9.40;99.90;;;;;;6130405;23;20168;-84
2021/12/16 13:26:20;;;;;;;16.90;11.68;;;9.60;99.90;;;;;;6135142;23;20165;-86
2021/12/16 13:29:03;;;;;;;15.90;12.25;;;9.70;99.90;;;;;;6132699;23;20196;-86
2021/12/16 13:31:46;;;;;;;16.88;12.60;;;9.60;99.90;;;;;;6130462;23;20180;-85
2021/12/16 13:34:29;;;;;;;16.23;13.00;;;9.70;99.90;;;;;;6133095;23;20529;-85
2021/12/16 13:37:02;;;;;;;13.80;11.80;;;9.60;99.90;;;;;;6133963;23;20168;-86
2021/12/16 13:39:30;;;;;;;14.77;10.90;;;9.60;99.90;;;;;;6107504;23;20204;-85
2021/12/16 13:42:06;;;;;;;17.48;12.25;;;9.60;99.90;;;;;;6133099;23;20210;-84
2021/12/16 13:44:59;;;;;;;16.83;11.27;;;9.60;99.90;;;;;;6131705;23;20168;-84
2021/12/16 13:47:53;;;;;;;16.02;12.20;;;9.50;99.90;;;;;;6131117;23;20178;-83
2021/12/16 14:02:49;;;;;;;15.93;12.63;;;9.50;99.90;;;;;;6130007;23;20176;-82
2021/12/16 14:08:46;;;;;;;17.35;12.65;;;9.40;99.90;;;;;;6118812;23;20514;-85
2021/12/16 14:14:55;;;;;;;16.23;13.35;;;9.30;99.90;;;;;;6124772;23;20199;-84
2021/12/16 14:17:54;;;;;;;21.08;14.90;;;9.20;99.90;;;;;;6039790;23;20407;-85
2021/12/16 14:23:18;;;;;;;17.42;12.70;;;9.10;99.90;;;;;;6129611;23;20159;-84
2021/12/16 14:26:10;;;;;;;15.65;12.77;;;9.00;99.90;;;;;;6127987;23;20168;-83
2021/12/16 14:32:02;;;;;;;17.02;11.38;;;8.80;99.90;;;;;;6128625;23;20240;-83
2021/12/16 14:37:21;;;;;;;14.30;12.90;;;8.70;99.90;;;;;;6129007;23;20159;-83
2021/12/16 14:42:43;;;;;;;19.80;13.07;;;8.70;99.90;;;;;;6126135;23;20182;-86
2021/12/16 14:45:27;;;;;;;14.00;11.68;;;8.70;99.90;;;;;;6128193;23;21075;-86
2021/12/16 14:48:09;;;;;;;20.13;14.43;;;8.70;99.90;;;;;;6126846;23;20203;-83
2021/12/16 14:50:39;;;;;;;16.42;12.80;;;8.70;99.90;;;;;;6126509;23;20248;-81
2021/12/16 14:53:38;;;;;;;16.73;12.88;;;8.60;99.90;;;;;;6125981;23;20519;-82
2021/12/16 14:56:08;;;;;;;16.38;11.60;;;8.60;99.90;;;;;;6126055;23;20555;-85
2021/12/16 14:58:36;;;;;;;15.77;12.85;;;8.60;99.90;;;;;;6125721;23;20180;-84
2021/12/16 15:01:07;;;;;;;22.85;13.35;;;8.50;99.90;;;;;;6125330;23;20164;-81
2021/12/16 15:03:40;;;;;;;18.45;13.15;;;8.40;99.90;;;;;;6128617;23;20167;-84
2021/12/16 15:06:13;;;;;;;15.77;12.88;;;8.30;99.90;;;;;;6128336;23;20170;-81
2021/12/16 15:08:48;;;;;;;20.80;14.18;;;8.20;99.90;;;;;;6129380;23;20254;-83
2021/12/16 15:11:26;;;;;;;16.98;11.93;;;8.10;99.90;;;;;;6127212;23;20167;-84
2021/12/16 15:13:57;;;;;;;14.88;11.65;;;8.10;99.90;;;;;;6129222;23;20187;-83
2021/12/16 15:16:49;;;;;;;16.83;13.98;;;8.10;99.90;;;;;;6128100;23;20172;-82
2021/12/16 15:36:44;;;;;;;20.10;15.10;;;7.70;99.90;;;;;;6126317;23;20513;-80
2021/12/16 15:39:26;;;;;;;15.82;11.90;;;7.60;99.90;;;;;;6135234;23;20204;-80
2021/12/16 15:44:46;;;;;;;22.23;12.77;;;7.50;99.90;;;;;;6126096;23;20240;-82
2021/12/16 15:47:12;;;;;;;19.02;13.48;;;7.40;99.90;;;;;;6126653;23;20707;-81
2021/12/16 15:49:39;;;;;;;17.83;15.07;;;7.20;99.90;;;;;;6126259;23;20226;-82
2021/12/16 15:52:07;;;;;;;19.55;14.43;;;7.10;99.90;;;;;;6126758;23;20290;-82
2021/12/16 15:54:35;;;;;;;13.57;12.15;;;7.00;99.90;;;;;;6124968;23;20656;-80
2021/12/16 15:57:03;;;;;;;18.42;13.90;;;6.90;99.90;;;;;;6126432;23;20190;-82
2021/12/16 15:59:30;;;;;;;23.10;14.20;;;6.80;99.90;;;;;;6127827;23;20212;-83
2021/12/16 16:01:59;;;;;;;16.65;13.55;;;6.70;99.90;;;;;;6129166;23;20179;-81
2021/12/16 16:04:27;;;;;;;17.60;13.82;;;6.70;99.90;;;;;;6128335;23;20176;-81
2021/12/16 16:06:57;;;;;;;22.50;12.63;;;6.70;99.90;;;;;;6127862;23;20199;-82
2021/12/16 16:09:28;;;;;;;17.58;13.00;;;6.60;99.90;;;;;;6124113;23;20202;-79
2021/12/16 16:11:56;;;;;;;18.95;14.30;;;6.60;99.90;;;;;;6127556;23;20168;-84
2021/12/16 16:14:25;;;;;;;16.10;14.40;;;6.60;99.90;;;;;;6127616;23;20259;-82
2021/12/16 16:16:57;;;;;;;18.00;14.88;;;6.50;99.90;;;;;;6127272;23;20186;-80
2021/12/16 16:19:26;;;;;;;16.73;14.05;;;6.40;99.90;;;;;;6127066;23;20210;-84
2021/12/16 16:21:57;;;;;;;21.10;15.00;;;6.40;99.90;;;;;;6126530;23;20495;-83
2021/12/16 16:24:58;;;;;;;14.90;13.00;;;6.30;99.90;;;;;;6123722;23;20195;-85
2021/12/16 16:27:28;;;;;;;17.20;13.80;;;6.30;99.90;;;;;;6126565;23;20208;-82
2021/12/16 16:29:58;;;;;;;16.17;13.52;;;6.20;99.90;;;;;;6127928;23;20223;-81
2021/12/16 16:32:28;;;;;;;18.60;14.38;;;6.20;99.90;;;;;;6137283;23;20534;-82
2021/12/16 16:35:00;;;;;;;16.08;13.65;;;6.20;99.90;;;;;;6137485;23;20237;-82
2021/12/16 16:37:30;;;;;;;16.17;12.13;;;6.10;99.90;;;;;;6131097;23;20216;-84
2021/12/16 16:40:04;;;;;;;20.40;13.23;;;6.00;99.90;;;;;;6130686;23;20532;-84
2021/12/16 16:42:33;;;;;;;17.85;13.90;;;6.00;99.90;;;;;;6128304;23;20162;-83
2021/12/16 16:45:00;;;;;;;14.40;11.75;;;5.90;99.90;;;;;;6126510;23;20183;-82
2021/12/16 16:47:33;;;;;;;15.45;12.20;;;5.90;99.90;;;;;;6123884;23;20491;-84
2021/12/16 16:50:00;;;;;;;13.45;11.38;;;5.80;99.90;;;;;;6126446;23;20682;-81